Time;durP1;ratioP1;P1;durP2;ratioP2;P2;SDS_P1;SDS_P2;PMS_P1;PMS_P2;Temp;Humidity;BMP_temperature;BMP_pressure;BME280_temperature;BME280_humidity;BME280_pressure;Samples;Min_cycle;Max_cycle;Signal;HPM_P1;HPM_P2
2023/03/20 00:00:02;;;;;;;13.83;12.50;;;10.00;74.40;;;;;;6252438;28;20470;-60
2023/03/20 00:03:05;;;;;;;15.20;13.60;;;10.00;74.40;;;;;;6251619;28;20473;-60
2023/03/20 00:06:16;;;;;;;16.50;13.13;;;10.00;74.40;;;;;;6249703;28;20475;-60
2023/03/20 00:09:19;;;;;;;15.03;13.53;;;10.00;74.40;;;;;;6251514;28;20467;-60
2023/03/20 00:12:25;;;;;;;14.50;12.97;;;10.00;74.40;;;;;;6252925;28;20471;-60
2023/03/20 00:15:32;;;;;;;14.87;13.37;;;10.00;74.50;;;;;;6252972;28;20949;-60
2023/03/20 00:18:35;;;;;;;15.57;13.90;;;9.90;76.40;;;;;;6252365;28;20493;-60
2023/03/20 00:21:40;;;;;;;15.10;13.70;;;9.90;76.70;;;;;;6251407;28;20474;-60
2023/03/20 00:24:43;;;;;;;13.53;12.13;;;9.90;77.30;;;;;;6250467;28;20494;-61
2023/03/20 00:27:46;;;;;;;13.50;12.20;;;9.80;77.60;;;;;;6251372;28;20478;-66
2023/03/20 00:30:49;;;;;;;15.17;13.57;;;9.80;78.10;;;;;;6259342;28;20470;-66
2023/03/20 00:33:54;;;;;;;16.57;13.40;;;9.90;78.10;;;;;;6255691;28;20933;-65
2023/03/20 00:36:59;;;;;;;14.67;13.13;;;9.80;78.10;;;;;;6251834;28;20486;-63
2023/03/20 00:40:03;;;;;;;17.40;14.00;;;9.80;78.40;;;;;;6251821;28;20474;-64
2023/03/20 00:43:06;;;;;;;19.33;14.37;;;9.90;78.70;;;;;;6252247;28;20479;-63
2023/03/20 00:46:13;;;;;;;17.93;15.07;;;9.90;78.70;;;;;;6252179;28;20940;-63
2023/03/20 00:49:17;;;;;;;18.90;17.00;;;9.90;80.50;;;;;;6251249;28;20479;-63
2023/03/20 00:52:22;;;;;;;16.70;15.10;;;9.90;79.70;;;;;;6242877;28;20482;-65
2023/03/20 00:55:28;;;;;;;16.77;13.70;;;10.00;78.30;;;;;;6226381;28;20479;-65
2023/03/20 00:58:31;;;;;;;14.73;13.37;;;10.00;78.20;;;;;;6226956;28;20483;-68
2023/03/20 01:01:35;;;;;;;14.23;13.00;;;10.00;77.70;;;;;;6226262;28;20591;-65
2023/03/20 01:04:41;;;;;;;13.70;12.20;;;10.10;77.50;;;;;;6226336;28;20541;-65
2023/03/20 01:07:46;;;;;;;14.50;13.00;;;10.00;77.40;;;;;;6227120;28;20475;-65
2023/03/20 01:10:52;;;;;;;16.90;14.30;;;10.00;77.70;;;;;;6226382;28;20486;-64
2023/03/20 01:13:56;;;;;;;14.13;12.57;;;10.00;77.60;;;;;;6226399;28;20483;-67
2023/03/20 01:16:59;;;;;;;15.03;13.03;;;10.00;77.40;;;;;;6225820;28;21062;-64
2023/03/20 01:20:02;;;;;;;16.60;14.30;;;10.00;77.80;;;;;;6225887;28;20483;-64
2023/03/20 01:23:06;;;;;;;14.80;12.90;;;10.00;77.90;;;;;;6224840;28;20476;-64
2023/03/20 01:26:22;;;;;;;14.47;12.50;;;10.00;79.20;;;;;;6224576;28;20494;-63
2023/03/20 01:29:27;;;;;;;14.20;12.70;;;10.00;79.60;;;;;;6225849;28;20472;-63
2023/03/20 01:32:30;;;;;;;14.47;12.80;;;10.00;79.70;;;;;;6227819;28;20471;-64
2023/03/20 01:35:33;;;;;;;19.40;14.73;;;9.90;80.20;;;;;;6234425;28;20472;-64
2023/03/20 01:38:39;;;;;;;19.07;15.03;;;9.90;80.10;;;;;;6245763;28;20475;-64
2023/03/20 01:41:44;;;;;;;16.07;13.60;;;9.90;80.60;;;;;;6238982;28;20483;-65
2023/03/20 01:44:47;;;;;;;16.93;14.10;;;9.90;80.60;;;;;;6225302;28;20476;-64
2023/03/20 01:47:51;;;;;;;13.57;12.30;;;9.90;80.60;;;;;;6224860;28;20456;-65
2023/03/20 01:50:54;;;;;;;13.60;12.33;;;9.90;80.70;;;;;;6241313;28;20462;-63
2023/03/20 01:54:02;;;;;;;13.90;12.47;;;9.90;80.80;;;;;;6250093;28;20758;-64
2023/03/20 01:57:10;;;;;;;14.53;13.13;;;9.80;80.80;;;;;;6236106;28;20941;-64
2023/03/20 02:00:15;;;;;;;15.83;14.10;;;9.90;81.30;;;;;;6248833;28;20513;-64
2023/03/20 02:03:20;;;;;;;14.57;13.07;;;9.80;81.00;;;;;;6249961;28;20568;-65
2023/03/20 02:06:25;;;;;;;16.47;13.93;;;9.80;81.00;;;;;;6246217;28;20472;-64
2023/03/20 02:09:29;;;;;;;16.03;13.17;;;9.70;81.60;;;;;;6225010;28;20480;-64
2023/03/20 02:12:34;;;;;;;14.47;13.00;;;9.70;81.80;;;;;;6225066;28;20805;-64
2023/03/20 02:15:57;;;;;;;13.70;12.37;;;9.60;82.00;;;;;;6224830;28;20499;-64
2023/03/20 02:19:01;;;;;;;13.40;12.20;;;9.50;82.90;;;;;;6224601;28;20550;-64
2023/03/20 02:22:35;;;;;;;15.57;14.07;;;9.50;83.70;;;;;;6222843;28;20467;-64
2023/03/20 02:26:05;;;;;;;13.03;11.73;;;9.60;84.20;;;;;;6223562;28;20479;-64
2023/03/20 02:29:45;;;;;;;14.10;12.70;;;9.50;84.50;;;;;;6246727;28;20529;-63
2023/03/20 02:33:34;;;;;;;13.43;12.03;;;9.40;84.70;;;;;;6242139;28;20479;-63
2023/03/20 02:36:57;;;;;;;14.03;12.70;;;9.40;85.30;;;;;;6247769;28;20489;-63
2023/03/20 02:40:15;;;;;;;14.90;11.97;;;9.40;85.40;;;;;;6249089;28;20483;-63
2023/03/20 02:43:26;;;;;;;14.07;12.57;;;9.30;85.50;;;;;;6249606;28;20475;-63
2023/03/20 02:46:38;;;;;;;13.73;12.43;;;9.30;86.00;;;;;;6249377;28;20479;-63
2023/03/20 02:49:52;;;;;;;15.47;12.80;;;9.40;86.40;;;;;;6249065;28;20482;-63
2023/03/20 02:53:01;;;;;;;14.30;12.90;;;9.40;86.60;;;;;;6249187;28;20968;-63
2023/03/20 02:56:12;;;;;;;16.33;13.70;;;9.40;86.70;;;;;;6248765;28;20555;-64
2023/03/20 02:59:24;;;;;;;14.00;12.60;;;9.40;86.50;;;;;;6248842;28;20475;-63
2023/03/20 03:02:34;;;;;;;14.53;13.03;;;9.40;86.50;;;;;;6239451;28;20498;-63
2023/03/20 03:05:42;;;;;;;14.37;12.70;;;9.40;86.60;;;;;;6248063;28;20566;-63
2023/03/20 03:08:50;;;;;;;14.27;12.83;;;9.50;86.50;;;;;;6247891;28;20467;-63
2023/03/20 03:12:01;;;;;;;19.43;14.60;;;9.50;86.70;;;;;;6251009;28;20459;-65
2023/03/20 03:15:08;;;;;;;14.93;13.53;;;9.50;86.80;;;;;;6253570;28;20470;-65
2023/03/20 03:18:15;;;;;;;15.63;14.03;;;9.50;87.10;;;;;;6253568;28;20475;-65
2023/03/20 03:21:20;;;;;;;14.53;13.03;;;9.50;87.50;;;;;;6253120;28;20471;-64
2023/03/20 03:24:29;;;;;;;15.90;14.20;;;9.50;87.50;;;;;;6253088;28;20974;-64
2023/03/20 03:27:48;;;;;;;20.33;14.43;;;9.50;87.60;;;;;;6253549;28;20486;-63
2023/03/20 03:30:52;;;;;;;16.40;14.67;;;9.50;87.70;;;;;;6253936;28;20475;-64
2023/03/20 03:33:58;;;;;;;14.80;13.37;;;9.60;87.80;;;;;;6253149;28;20472;-64
2023/03/20 03:37:06;;;;;;;15.00;13.50;;;9.70;87.70;;;;;;6253785;28;20498;-64
2023/03/20 03:40:19;;;;;;;17.43;14.30;;;9.60;87.60;;;;;;6253187;28;20474;-64
2023/03/20 03:43:31;;;;;;;14.93;13.43;;;9.60;87.70;;;;;;6253105;28;20477;-64
2023/03/20 03:46:40;;;;;;;17.13;14.50;;;9.70;88.10;;;;;;6253442;28;20482;-64
2023/03/20 03:49:51;;;;;;;15.07;13.63;;;9.70;88.10;;;;;;6253167;28;20467;-63
2023/03/20 03:52:58;;;;;;;15.60;13.53;;;9.70;88.20;;;;;;6252890;28;20471;-63
2023/03/20 03:56:05;;;;;;;16.17;14.43;;;9.70;88.20;;;;;;6252490;28;20490;-63
2023/03/20 03:59:19;;;;;;;16.37;14.67;;;9.70;88.30;;;;;;6252576;28;20961;-63
2023/03/20 04:02:23;;;;;;;16.90;14.47;;;9.70;88.60;;;;;;6253134;28;20471;-64
2023/03/20 04:05:31;;;;;;;15.07;13.53;;;9.60;88.60;;;;;;6244101;28;20498;-64
2023/03/20 04:08:35;;;;;;;15.77;14.27;;;9.70;89.00;;;;;;6252543;28;20467;-64
2023/03/20 04:11:38;;;;;;;13.70;12.40;;;9.70;89.10;;;;;;6254990;28;20482;-63
2023/03/20 04:14:43;;;;;;;15.13;13.53;;;9.70;89.00;;;;;;6252400;28;20467;-64
2023/03/20 04:17:46;;;;;;;14.43;11.90;;;9.70;89.10;;;;;;6252483;28;20467;-64
2023/03/20 04:20:50;;;;;;;15.33;13.70;;;9.60;89.10;;;;;;6252272;28;20967;-64
2023/03/20 04:23:53;;;;;;;14.73;13.10;;;9.60;89.30;;;;;;6252090;28;20461;-64
2023/03/20 04:26:57;;;;;;;13.37;12.03;;;9.60;89.70;;;;;;6252132;28;20490;-64
2023/03/20 04:30:01;;;;;;;16.63;14.00;;;9.60;89.80;;;;;;6252212;28;20458;-65
2023/03/20 04:33:05;;;;;;;14.47;13.03;;;9.70;89.90;;;;;;6251874;28;20443;-64
2023/03/20 04:36:09;;;;;;;15.97;14.27;;;9.60;90.00;;;;;;6252088;28;20459;-64
2023/03/20 04:39:12;;;;;;;14.33;12.90;;;9.70;90.10;;;;;;6251788;28;20493;-64
2023/03/20 04:42:16;;;;;;;17.13;12.80;;;9.60;90.10;;;;;;6251848;28;20473;-65
2023/03/20 04:45:20;;;;;;;14.17;12.30;;;9.70;90.20;;;;;;6250857;28;21127;-64
2023/03/20 04:48:23;;;;;;;14.93;13.33;;;9.70;90.20;;;;;;6251674;28;20490;-64
2023/03/20 04:51:27;;;;;;;15.87;13.73;;;9.70;90.20;;;;;;6251723;28;20466;-64
2023/03/20 04:54:30;;;;;;;14.40;12.90;;;9.70;90.20;;;;;;6251707;28;20482;-64
2023/03/20 04:57:33;;;;;;;15.50;13.90;;;9.70;90.30;;;;;;6251238;28;20478;-64
2023/03/20 05:00:38;;;;;;;16.03;14.00;;;9.70;90.40;;;;;;6251602;28;20467;-64
2023/03/20 05:03:41;;;;;;;14.00;12.60;;;9.70;90.50;;;;;;6251193;28;20481;-64
2023/03/20 05:06:47;;;;;;;14.03;12.73;;;9.80;90.50;;;;;;6246250;28;20479;-64
2023/03/20 05:09:51;;;;;;;14.37;12.80;;;9.80;90.50;;;;;;6250882;28;20564;-64
2023/03/20 05:12:54;;;;;;;14.47;13.20;;;9.80;90.50;;;;;;6250769;28;21169;-64
2023/03/20 05:15:58;;;;;;;15.90;14.37;;;9.80;90.50;;;;;;6250875;28;20471;-63
2023/03/20 05:19:02;;;;;;;14.07;12.63;;;9.80;90.60;;;;;;6251250;28;20473;-64
2023/03/20 05:22:05;;;;;;;15.73;14.07;;;9.80;90.60;;;;;;6250902;28;20479;-64
2023/03/20 05:25:08;;;;;;;16.50;14.30;;;9.80;90.60;;;;;;6250804;28;20498;-64
2023/03/20 05:28:12;;;;;;;17.57;15.77;;;9.80;90.70;;;;;;6250601;28;20760;-64
2023/03/20 05:31:16;;;;;;;16.70;15.03;;;9.90;90.80;;;;;;6250613;28;20529;-64
2023/03/20 05:34:20;;;;;;;19.07;15.43;;;9.80;90.90;;;;;;6251360;28;20486;-65
2023/03/20 05:37:23;;;;;;;15.87;14.37;;;9.80;90.90;;;;;;6250685;28;20481;-64
2023/03/20 05:40:26;;;;;;;17.50;14.73;;;9.90;91.00;;;;;;6250386;28;20561;-64
2023/03/20 05:43:29;;;;;;;22.97;16.13;;;9.90;91.00;;;;;;6250352;28;20481;-64
2023/03/20 05:46:34;;;;;;;18.67;16.87;;;9.90;91.00;;;;;;6251187;28;20494;-64
2023/03/20 05:49:37;;;;;;;16.40;14.77;;;9.90;91.00;;;;;;6250887;28;20479;-64
2023/03/20 05:52:40;;;;;;;16.47;14.87;;;9.90;91.00;;;;;;6250735;28;20482;-64
2023/03/20 05:55:44;;;;;;;20.77;14.63;;;9.90;91.20;;;;;;6250196;28;20969;-64
2023/03/20 05:58:47;;;;;;;16.33;14.67;;;10.00;90.90;;;;;;6250055;28;20467;-64
2023/03/20 06:01:52;;;;;;;17.73;15.17;;;10.00;91.00;;;;;;6250404;28;20490;-64
2023/03/20 06:04:55;;;;;;;17.33;15.50;;;10.00;91.00;;;;;;6250249;28;20487;-64
2023/03/20 06:07:58;;;;;;;17.30;14.83;;;10.10;91.00;;;;;;6249546;28;20990;-64
2023/03/20 06:11:02;;;;;;;17.07;15.40;;;10.10;90.90;;;;;;6250082;28;20479;-64
2023/03/20 06:14:06;;;;;;;16.93;15.27;;;10.20;90.80;;;;;;6249534;28;20478;-64
2023/03/20 06:17:10;;;;;;;17.93;15.77;;;10.30;90.80;;;;;;6249522;28;20471;-63
2023/03/20 06:20:14;;;;;;;17.73;15.30;;;10.30;90.70;;;;;;6250064;28;20478;-63
2023/03/20 06:23:17;;;;;;;16.60;15.00;;;10.40;90.70;;;;;;6249855;28;20811;-65
2023/03/20 06:26:20;;;;;;;15.27;13.77;;;10.40;90.70;;;;;;6249724;28;20492;-64
2023/03/20 06:29:24;;;;;;;16.33;14.63;;;10.50;90.60;;;;;;6249595;28;20474;-65
2023/03/20 06:32:28;;;;;;;16.00;14.60;;;10.50;90.50;;;;;;6249599;28;20482;-64
2023/03/20 06:35:32;;;;;;;18.90;15.50;;;10.60;90.40;;;;;;6249747;28;20483;-64
2023/03/20 06:38:36;;;;;;;18.07;16.30;;;10.60;90.10;;;;;;6249459;28;20467;-65
2023/03/20 06:41:39;;;;;;;16.63;14.73;;;10.70;90.20;;;;;;6249681;28;20471;-65
2023/03/20 06:44:43;;;;;;;20.03;14.63;;;10.80;90.20;;;;;;6249016;28;20478;-65
2023/03/20 06:47:48;;;;;;;17.97;16.07;;;10.90;90.10;;;;;;6248755;28;20482;-67
2023/03/20 06:50:52;;;;;;;16.90;15.10;;;10.90;89.80;;;;;;6248942;28;20464;-64
2023/03/20 06:53:55;;;;;;;16.83;15.37;;;11.10;89.40;;;;;;6249192;28;20446;-64
2023/03/20 06:56:59;;;;;;;19.03;14.90;;;11.20;88.80;;;;;;6248970;28;20587;-64
2023/03/20 07:00:03;;;;;;;15.33;13.83;;;11.40;88.00;;;;;;6249505;28;20447;-64
2023/03/20 07:03:08;;;;;;;16.67;14.57;;;11.60;87.00;;;;;;6250322;28;20462;-64
2023/03/20 07:06:12;;;;;;;17.13;14.90;;;11.80;86.30;;;;;;6249362;28;20482;-64
2023/03/20 07:09:16;;;;;;;16.30;14.60;;;12.10;85.60;;;;;;6248712;28;20470;-64
2023/03/20 07:12:19;;;;;;;17.70;14.60;;;12.30;84.30;;;;;;6249668;28;20482;-64
2023/03/20 07:15:23;;;;;;;21.47;15.80;;;12.50;83.40;;;;;;6240938;28;20482;-65
2023/03/20 07:18:28;;;;;;;15.67;13.97;;;12.80;82.20;;;;;;6257580;28;20470;-65
2023/03/20 07:21:32;;;;;;;16.10;14.40;;;13.10;80.60;;;;;;6260460;28;20471;-64
2023/03/20 07:24:35;;;;;;;19.20;15.80;;;13.30;78.80;;;;;;6254434;28;20489;-62
2023/03/20 07:27:38;;;;;;;19.87;14.83;;;13.50;78.10;;;;;;6249448;28;20479;-63
2023/03/20 07:30:41;;;;;;;18.50;14.60;;;13.60;77.90;;;;;;6248222;28;20985;-64
2023/03/20 07:33:46;;;;;;;23.00;15.80;;;13.60;76.50;;;;;;6248955;28;20485;-64
2023/03/20 07:36:49;;;;;;;17.00;15.47;;;13.50;76.40;;;;;;6248537;28;20471;-64
2023/03/20 07:39:52;;;;;;;16.70;14.93;;;13.40;76.60;;;;;;6249021;28;20485;-64
2023/03/20 07:42:56;;;;;;;17.10;15.37;;;13.40;76.90;;;;;;6248568;28;20485;-64
2023/03/20 07:46:01;;;;;;;22.10;15.60;;;13.50;76.80;;;;;;6248585;28;20486;-63
2023/03/20 07:49:06;;;;;;;24.67;16.40;;;13.50;76.50;;;;;;6248255;28;20493;-64
2023/03/20 07:52:09;;;;;;;18.83;15.43;;;13.50;76.70;;;;;;6249035;28;20971;-65
2023/03/20 07:55:12;;;;;;;23.33;15.33;;;13.60;76.80;;;;;;6248592;28;20490;-64
2023/03/20 07:58:15;;;;;;;18.83;15.20;;;13.90;76.50;;;;;;6258443;28;20466;-65
2023/03/20 08:01:19;;;;;;;18.13;14.47;;;14.20;75.90;;;;;;6256749;28;20482;-64
2023/03/20 08:04:23;;;;;;;16.67;14.70;;;14.50;74.90;;;;;;6253785;28;20478;-65
2023/03/20 08:07:28;;;;;;;15.10;13.53;;;14.90;73.80;;;;;;6253447;28;20489;-64
2023/03/20 08:10:31;;;;;;;15.93;13.23;;;15.50;72.10;;;;;;6253038;28;20471;-65
2023/03/20 08:13:35;;;;;;;17.37;15.47;;;16.10;69.70;;;;;;6253561;28;20474;-64
2023/03/20 08:16:38;;;;;;;15.90;13.33;;;16.50;68.00;;;;;;6253111;28;20494;-65
2023/03/20 08:19:42;;;;;;;16.60;13.80;;;17.00;66.20;;;;;;6248712;28;20956;-65
2023/03/20 08:22:46;;;;;;;12.87;11.43;;;17.40;63.70;;;;;;6252903;28;20467;-65
2023/03/20 08:25:49;;;;;;;14.07;12.17;;;18.00;61.90;;;;;;6252558;28;20470;-65
2023/03/20 08:28:52;;;;;;;12.57;11.30;;;18.80;60.20;;;;;;6252135;28;20236;-65
2023/03/20 08:31:56;;;;;;;16.37;14.87;;;20.20;57.30;;;;;;6252703;28;20246;-65
2023/03/20 08:35:01;;;;;;;15.43;14.13;;;21.40;52.70;;;;;;6252003;28;20228;-63
2023/03/20 08:38:04;;;;;;;18.57;14.13;;;21.30;50.00;;;;;;6252207;28;20228;-65
2023/03/20 08:41:08;;;;;;;16.83;15.17;;;20.90;49.80;;;;;;6251738;28;20232;-66
2023/03/20 08:44:12;;;;;;;16.77;14.97;;;20.60;49.90;;;;;;6252043;28;20262;-65
2023/03/20 08:47:15;;;;;;;15.50;13.97;;;20.40;50.30;;;;;;6244936;28;20224;-63
2023/03/20 08:50:20;;;;;;;21.57;16.00;;;20.20;50.70;;;;;;6248085;28;20307;-63
2023/03/20 08:53:23;;;;;;;15.07;13.67;;;20.20;50.60;;;;;;6251673;28;20224;-64
2023/03/20 08:56:26;;;;;;;17.50;13.27;;;20.00;50.20;;;;;;6252113;28;20240;-64
2023/03/20 08:59:31;;;;;;;14.13;12.70;;;19.60;51.10;;;;;;6252047;28;20228;-65
2023/03/20 09:02:37;;;;;;;15.80;14.20;;;19.50;51.10;;;;;;6251477;28;20264;-63
2023/03/20 09:05:41;;;;;;;17.60;15.53;;;19.80;50.70;;;;;;6238600;28;20244;-65
2023/03/20 09:08:45;;;;;;;16.30;14.70;;;20.10;50.60;;;;;;6226815;28;20233;-65
2023/03/20 09:11:48;;;;;;;17.77;16.07;;;21.50;49.80;;;;;;6227156;28;20240;-66
2023/03/20 09:14:51;;;;;;;19.30;17.33;;;24.10;46.00;;;;;;6246377;28;20240;-66
2023/03/20 09:17:55;;;;;;;19.83;17.60;;;26.20;40.10;;;;;;6251733;28;20239;-67
2023/03/20 09:20:59;;;;;;;20.50;17.93;;;26.70;37.30;;;;;;6251854;28;20210;-66
2023/03/20 09:24:03;;;;;;;21.80;19.60;;;27.20;35.40;;;;;;6241634;28;20650;-66
2023/03/20 09:27:06;;;;;;;22.60;18.13;;;26.20;35.80;;;;;;6251697;28;20224;-67
2023/03/20 09:30:11;;;;;;;24.17;18.60;;;25.20;36.80;;;;;;6251664;28;20223;-66
2023/03/20 09:33:14;;;;;;;22.37;19.57;;;24.50;38.00;;;;;;6251667;28;20227;-66
2023/03/20 09:36:19;;;;;;;23.93;19.00;;;24.70;39.20;;;;;;6251801;28;20429;-66
2023/03/20 09:39:22;;;;;;;20.03;18.10;;;25.90;37.10;;;;;;6250990;28;20255;-64
2023/03/20 09:42:41;;;;;;;20.90;18.93;;;27.30;35.50;;;;;;6251516;28;20715;-67
2023/03/20 09:45:51;;;;;;;19.90;18.23;;;28.30;32.80;;;;;;6251445;28;20232;-65
2023/03/20 09:49:02;;;;;;;18.63;16.97;;;27.70;32.20;;;;;;6249640;28;20662;-63
2023/03/20 09:52:22;;;;;;;19.07;15.40;;;27.10;32.80;;;;;;6250155;28;20286;-63
2023/03/20 09:55:32;;;;;;;22.23;16.03;;;28.30;32.40;;;;;;6248532;28;20250;-63
2023/03/20 09:58:38;;;;;;;17.37;15.77;;;30.00;29.60;;;;;;6244835;28;20235;-63
2023/03/20 10:01:48;;;;;;;16.73;14.40;;;28.80;29.50;;;;;;6250447;28;20677;-64
2023/03/20 10:04:54;;;;;;;15.33;13.87;;;28.10;30.40;;;;;;6250212;28;20681;-63
2023/03/20 10:08:01;;;;;;;15.97;14.03;;;27.00;31.50;;;;;;6250573;28;20297;-65
2023/03/20 10:11:21;;;;;;;15.97;14.47;;;27.20;31.70;;;;;;6250218;28;20653;-64
2023/03/20 10:14:31;;;;;;;16.47;13.73;;;27.50;31.20;;;;;;6250553;28;20580;-63
2023/03/20 10:17:48;;;;;;;14.17;12.80;;;27.10;31.40;;;;;;6250534;28;20251;-63
2023/03/20 10:20:57;;;;;;;13.93;12.83;;;26.30;32.10;;;;;;6249705;28;20223;-63
2023/03/20 10:24:04;;;;;;;14.87;13.37;;;25.40;33.60;;;;;;6235404;28;20228;-64
2023/03/20 10:27:17;;;;;;;12.43;11.43;;;24.40;35.00;;;;;;6221310;28;20224;-62
2023/03/20 10:30:37;;;;;;;12.73;11.60;;;23.30;36.20;;;;;;6225235;28;20225;-62
2023/03/20 10:33:54;;;;;;;10.57;9.77;;;22.90;37.60;;;;;;6225217;28;20229;-63
2023/03/20 10:37:11;;;;;;;10.30;9.40;;;22.70;38.00;;;;;;6225235;28;20693;-62
2023/03/20 10:40:29;;;;;;;10.60;9.50;;;22.20;38.50;;;;;;6225475;28;20283;-63
2023/03/20 10:43:36;;;;;;;12.50;9.63;;;21.80;39.50;;;;;;6225380;28;20243;-63
2023/03/20 10:46:44;;;;;;;18.60;10.47;;;21.40;40.00;;;;;;6225800;28;20232;-62
2023/03/20 10:49:52;;;;;;;10.00;9.00;;;21.20;40.50;;;;;;6230505;28;20688;-63
2023/03/20 10:52:57;;;;;;;9.13;7.93;;;21.00;40.90;;;;;;6250132;28;20240;-63
2023/03/20 10:56:06;;;;;;;7.33;6.70;;;20.90;41.00;;;;;;6243356;28;20306;-63
2023/03/20 10:59:17;;;;;;;11.70;4.77;;;20.90;41.20;;;;;;6224928;28;20236;-63
2023/03/20 11:02:22;;;;;;;5.00;3.90;;;20.80;41.20;;;;;;6225134;28;20714;-62
2023/03/20 11:05:30;;;;;;;4.33;3.93;;;20.80;41.60;;;;;;6225003;28;20320;-62
2023/03/20 11:08:36;;;;;;;3.57;3.27;;;20.80;41.70;;;;;;6225364;28;20232;-62
2023/03/20 11:11:43;;;;;;;3.60;3.30;;;20.80;40.80;;;;;;6225225;28;20307;-62
2023/03/20 11:14:46;;;;;;;3.77;3.47;;;20.60;40.70;;;;;;6224946;28;20232;-62
2023/03/20 11:17:54;;;;;;;3.50;3.20;;;20.40;41.40;;;;;;6224656;28;20243;-62
2023/03/20 11:20:58;;;;;;;4.00;2.67;;;20.30;41.80;;;;;;6224750;28;20209;-63
2023/03/20 11:24:01;;;;;;;2.83;2.63;;;20.20;41.40;;;;;;6224891;28;20209;-62
2023/03/20 11:27:10;;;;;;;3.03;2.83;;;20.00;41.70;;;;;;6224784;28;20235;-62
2023/03/20 11:30:17;;;;;;;2.80;2.60;;;19.80;42.00;;;;;;6224584;28;20233;-62
2023/03/20 11:33:20;;;;;;;3.10;2.90;;;19.60;42.50;;;;;;6231505;28;20287;-62
2023/03/20 11:36:26;;;;;;;3.30;2.90;;;19.50;42.70;;;;;;6254064;28;20234;-63
2023/03/20 11:39:32;;;;;;;2.70;2.30;;;19.30;42.90;;;;;;6252684;28;20279;-63
2023/03/20 11:42:37;;;;;;;5.27;3.00;;;19.20;43.20;;;;;;6254956;28;20228;-63
2023/03/20 11:45:42;;;;;;;4.43;2.73;;;19.20;43.40;;;;;;6253277;28;20328;-63
2023/03/20 11:48:47;;;;;;;3.60;3.03;;;19.10;43.70;;;;;;6254061;28;20270;-62
2023/03/20 11:51:50;;;;;;;6.33;3.23;;;19.20;43.80;;;;;;6252617;28;20566;-62
2023/03/20 11:54:56;;;;;;;3.40;3.10;;;19.20;43.40;;;;;;6254173;28;20223;-63
2023/03/20 11:58:03;;;;;;;3.33;2.87;;;19.10;43.20;;;;;;6230721;28;20240;-62
2023/03/20 12:01:11;;;;;;;3.67;2.73;;;19.00;43.40;;;;;;6228998;28;20243;-62
2023/03/20 12:04:18;;;;;;;3.10;2.80;;;18.90;43.50;;;;;;6228418;28;20295;-62
2023/03/20 12:07:26;;;;;;;2.97;2.77;;;18.80;44.00;;;;;;6246253;28;20339;-62
2023/03/20 12:10:35;;;;;;;2.90;2.70;;;18.80;44.00;;;;;;6254254;28;20228;-61
2023/03/20 12:13:46;;;;;;;3.70;2.40;;;18.80;44.50;;;;;;6253386;28;20247;-62
2023/03/20 12:16:52;;;;;;;2.93;2.73;;;18.70;44.40;;;;;;6252656;28;20267;-64
2023/03/20 12:20:01;;;;;;;3.77;3.30;;;18.60;44.80;;;;;;6252504;28;20235;-67
2023/03/20 12:23:13;;;;;;;4.60;4.20;;;18.60;45.40;;;;;;6252165;28;20326;-65
2023/03/20 12:26:21;;;;;;;6.10;5.50;;;18.50;46.30;;;;;;6252635;28;20243;-69
2023/03/20 12:29:30;;;;;;;6.07;4.63;;;18.50;47.00;;;;;;6252305;28;20302;-66
2023/03/20 12:32:40;;;;;;;6.10;5.30;;;18.40;47.00;;;;;;6252580;28;20306;-65
2023/03/20 12:35:48;;;;;;;8.03;5.80;;;18.50;47.40;;;;;;6252633;28;20243;-68
2023/03/20 12:38:52;;;;;;;10.17;6.03;;;18.60;47.70;;;;;;6244181;28;20306;-63
2023/03/20 12:42:14;;;;;;;5.70;4.63;;;18.70;47.90;;;;;;6251904;28;20231;-65
2023/03/20 12:45:21;;;;;;;5.40;4.27;;;18.70;46.50;;;;;;6251317;28;20235;-64
2023/03/20 12:48:43;;;;;;;3.97;2.60;;;18.70;46.50;;;;;;6252388;28;20243;-65
2023/03/20 12:51:58;;;;;;;3.53;3.23;;;18.80;45.60;;;;;;6251905;28;20552;-66
2023/03/20 12:55:15;;;;;;;3.47;3.00;;;18.80;45.50;;;;;;6251717;28;20240;-65
2023/03/20 12:58:27;;;;;;;3.93;3.30;;;18.90;45.40;;;;;;6227489;28;20240;-65
2023/03/20 13:01:35;;;;;;;4.63;3.53;;;19.00;45.40;;;;;;6227446;28;20609;-64
2023/03/20 13:04:51;;;;;;;3.47;3.20;;;19.00;44.90;;;;;;6231824;28;20250;-66
2023/03/20 13:08:10;;;;;;;2.90;2.50;;;19.10;44.60;;;;;;6233848;28;20232;-64
2023/03/20 13:11:19;;;;;;;3.30;3.00;;;19.10;44.30;;;;;;6251088;28;20235;-65
2023/03/20 13:14:28;;;;;;;3.90;3.50;;;19.20;44.70;;;;;;6248670;28;20533;-64
2023/03/20 13:17:37;;;;;;;5.03;3.90;;;19.20;45.00;;;;;;6280931;23;20230;-63
2023/03/20 13:20:49;;;;;;;4.47;4.07;;;19.30;44.90;;;;;;6275191;28;20215;-64
2023/03/20 13:24:02;;;;;;;4.17;3.73;;;19.40;44.50;;;;;;6275345;28;20239;-63
2023/03/20 13:27:21;;;;;;;4.93;4.40;;;19.50;44.60;;;;;;6254587;28;20220;-64
2023/03/20 13:30:32;;;;;;;4.37;3.97;;;19.50;44.60;;;;;;6249921;28;20248;-64
2023/03/20 13:33:47;;;;;;;4.00;3.60;;;19.60;44.40;;;;;;6250704;28;20238;-64
2023/03/20 13:37:02;;;;;;;4.50;4.00;;;19.60;44.40;;;;;;6250055;28;20271;-64
2023/03/20 13:40:27;;;;;;;4.23;3.70;;;19.70;44.20;;;;;;6226451;28;20240;-63
2023/03/20 13:43:34;;;;;;;3.87;3.57;;;19.70;43.90;;;;;;6225872;28;20236;-64
2023/03/20 13:46:43;;;;;;;3.97;3.20;;;19.70;43.50;;;;;;6225155;28;20251;-63
2023/03/20 13:49:56;;;;;;;3.37;2.83;;;19.70;43.20;;;;;;6239166;28;20671;-63
2023/03/20 13:53:09;;;;;;;3.60;2.97;;;19.60;43.00;;;;;;6249931;28;20377;-63
2023/03/20 13:56:22;;;;;;;3.30;2.90;;;19.60;43.30;;;;;;6248714;28;20236;-63
2023/03/20 13:59:40;;;;;;;3.60;2.80;;;19.80;43.20;;;;;;6249896;28;20232;-64
2023/03/20 14:03:02;;;;;;;3.43;2.57;;;19.90;42.70;;;;;;6249109;28;20224;-66
2023/03/20 14:06:18;;;;;;;3.97;3.07;;;20.10;42.80;;;;;;6249149;28;20678;-63
2023/03/20 14:09:28;;;;;;;3.47;2.40;;;20.20;42.20;;;;;;6247048;28;20224;-64
2023/03/20 14:12:32;;;;;;;3.10;2.30;;;20.30;42.10;;;;;;6249235;28;20437;-65
2023/03/20 14:15:38;;;;;;;3.40;2.57;;;20.30;41.90;;;;;;6248813;28;20228;-63
2023/03/20 14:18:43;;;;;;;3.23;2.83;;;20.50;41.90;;;;;;6250196;28;20224;-63
2023/03/20 14:21:50;;;;;;;3.83;2.77;;;20.70;41.60;;;;;;6249851;28;20242;-65
2023/03/20 14:24:57;;;;;;;6.30;5.37;;;20.70;41.30;;;;;;6250500;28;20251;-66
2023/03/20 14:28:07;;;;;;;4.43;2.70;;;20.70;41.40;;;;;;6250240;28;20228;-64
2023/03/20 14:31:20;;;;;;;3.20;2.90;;;20.50;41.50;;;;;;6249736;28;20228;-65
2023/03/20 14:34:24;;;;;;;3.63;3.13;;;20.40;41.80;;;;;;6249815;28;20239;-66
2023/03/20 14:37:36;;;;;;;4.87;3.60;;;20.30;42.10;;;;;;6249461;28;20685;-67
2023/03/20 14:40:47;;;;;;;3.37;2.60;;;20.20;42.20;;;;;;6249702;28;20696;-65
2023/03/20 14:44:08;;;;;;;3.80;2.30;;;20.00;42.30;;;;;;6249494;28;20692;-66
2023/03/20 14:47:22;;;;;;;2.70;2.50;;;19.70;42.50;;;;;;6248974;28;20247;-65
2023/03/20 14:50:31;;;;;;;3.20;2.37;;;19.50;42.90;;;;;;6249315;28;20224;-64
2023/03/20 14:53:36;;;;;;;3.07;2.50;;;19.40;43.30;;;;;;6249202;28;20229;-64
2023/03/20 14:56:39;;;;;;;2.97;2.53;;;19.30;43.10;;;;;;6249670;28;20556;-65
2023/03/20 14:59:42;;;;;;;3.23;2.40;;;19.10;43.70;;;;;;6249012;28;20531;-65
2023/03/20 15:02:48;;;;;;;2.13;1.93;;;19.00;44.00;;;;;;6249421;28;20220;-63
2023/03/20 15:05:57;;;;;;;3.00;2.70;;;18.90;44.10;;;;;;6229296;28;20224;-64
2023/03/20 15:09:06;;;;;;;2.23;2.03;;;18.70;44.40;;;;;;6250264;28;20235;-65
2023/03/20 15:12:14;;;;;;;2.37;2.17;;;18.60;44.40;;;;;;6252938;28;20243;-65
2023/03/20 15:15:26;;;;;;;2.37;2.17;;;18.60;44.40;;;;;;6253069;28;20270;-65
2023/03/20 15:18:29;;;;;;;3.13;1.90;;;18.70;44.50;;;;;;6254367;28;20228;-66
2023/03/20 15:21:34;;;;;;;3.57;2.20;;;18.90;44.30;;;;;;6254643;28;20224;-65
2023/03/20 15:24:39;;;;;;;5.13;3.40;;;18.90;44.40;;;;;;6254365;28;20228;-67
2023/03/20 15:27:43;;;;;;;5.10;2.53;;;18.90;44.10;;;;;;6253353;28;20527;-65
2023/03/20 15:30:48;;;;;;;2.33;1.83;;;18.80;44.00;;;;;;6253578;28;20228;-67
2023/03/20 15:33:52;;;;;;;3.43;2.60;;;18.80;44.00;;;;;;6253776;28;20235;-61
2023/03/20 15:36:57;;;;;;;3.50;2.43;;;18.70;44.00;;;;;;6253642;28;20571;-63
2023/03/20 15:40:11;;;;;;;3.87;2.23;;;18.60;44.30;;;;;;6253766;28;20244;-64
2023/03/20 15:43:18;;;;;;;2.73;2.03;;;18.60;44.40;;;;;;6253378;28;20232;-63
2023/03/20 15:46:26;;;;;;;2.07;1.97;;;18.50;44.20;;;;;;6242297;28;20227;-64
2023/03/20 15:49:32;;;;;;;4.00;2.20;;;18.50;44.30;;;;;;6253193;28;20232;-63
2023/03/20 15:52:40;;;;;;;4.77;2.37;;;18.40;44.20;;;;;;6253331;28;20311;-64
2023/03/20 15:55:49;;;;;;;3.53;2.10;;;18.30;44.30;;;;;;6252789;28;20232;-63
2023/03/20 15:58:55;;;;;;;3.40;2.27;;;18.20;44.50;;;;;;6252960;28;20573;-64